createdAt,value
2018-08-31T00:00:57.881Z,9.80
2018-08-31T00:01:57.613Z,15.40
2018-08-31T00:02:57.112Z,15.90
2018-08-31T00:03:57.800Z,13.10
2018-08-31T00:04:57.903Z,16.20
2018-08-31T00:05:57.427Z,17.00
2018-08-31T00:06:57.999Z,15.00
2018-08-31T00:07:57.941Z,11.20
2018-08-31T00:08:57.890Z,16.30
2018-08-31T00:09:57.933Z,20.80
2018-08-31T00:11:18.686Z,18.20
2018-08-31T00:12:40.671Z,20.30
2018-08-31T00:14:23.855Z,12.20
2018-08-31T00:15:45.791Z,12.50
2018-08-31T00:16:46.449Z,17.40
2018-08-31T00:17:46.099Z,16.80
2018-08-31T00:18:46.980Z,15.60
2018-08-31T00:19:46.427Z,11.30
2018-08-31T00:20:45.820Z,13.20
2018-08-31T00:21:46.618Z,15.10
2018-08-31T00:23:07.623Z,11.70
2018-08-31T00:24:08.539Z,11.40
2018-08-31T00:25:08.520Z,16.90
2018-08-31T00:26:08.249Z,14.90
2018-08-31T00:27:08.027Z,10.10
2018-08-31T00:28:08.881Z,8.70
2018-08-31T00:29:08.652Z,11.30
2018-08-31T00:30:08.416Z,13.10
2018-08-31T00:31:07.949Z,11.80
2018-08-31T00:32:08.836Z,17.10
2018-08-31T00:33:08.603Z,10.20
2018-08-31T00:34:08.217Z,14.70
2018-08-31T00:35:07.673Z,9.20
2018-08-31T00:36:08.081Z,10.60
2018-08-31T00:37:07.922Z,6.90
2018-08-31T00:38:08.744Z,9.30
2018-08-31T00:39:08.266Z,12.20
2018-08-31T00:40:07.662Z,7.30
2018-08-31T00:41:08.270Z,10.20
2018-08-31T00:42:07.910Z,13.50
2018-08-31T00:43:29.968Z,10.80
2018-08-31T00:44:51.345Z,14.20
2018-08-31T00:45:51.823Z,9.90
2018-08-31T00:47:35.200Z,11.90
2018-08-31T00:48:36.062Z,12.90
2018-08-31T00:49:35.569Z,10.60
2018-08-31T00:50:36.085Z,9.10
2018-08-31T00:51:35.638Z,8.40
2018-08-31T00:52:36.039Z,11.10
2018-08-31T00:53:35.876Z,11.70
2018-08-31T00:54:35.435Z,14.60
2018-08-31T00:55:35.776Z,16.20
2018-08-31T00:56:36.173Z,15.70
2018-08-31T00:57:35.589Z,19.10
2018-08-31T00:58:36.027Z,17.70
2018-08-31T00:59:35.807Z,16.20
2018-08-31T01:00:35.264Z,16.10
2018-08-31T01:01:35.832Z,16.30
2018-08-31T01:02:36.412Z,20.80
2018-08-31T01:03:57.613Z,17.00
2018-08-31T01:04:58.221Z,17.50
2018-08-31T01:05:57.867Z,17.20
2018-08-31T01:06:58.351Z,15.20
2018-08-31T01:07:57.935Z,15.80
2018-08-31T01:09:19.797Z,13.30
2018-08-31T01:10:20.235Z,13.60
2018-08-31T01:11:19.935Z,15.40
2018-08-31T01:12:20.698Z,15.50
2018-08-31T01:13:20.082Z,13.90
2018-08-31T01:14:20.887Z,15.70
2018-08-31T01:15:20.319Z,11.70
2018-08-31T01:16:20.624Z,14.80
2018-08-31T01:17:19.994Z,18.10
2018-08-31T01:18:20.753Z,15.70
2018-08-31T01:19:20.482Z,15.80
2018-08-31T01:20:19.967Z,14.10
2018-08-31T01:21:20.460Z,10.60
2018-08-31T01:22:19.812Z,15.30
2018-08-31T01:23:20.210Z,13.50
2018-08-31T01:24:41.606Z,8.40
2018-08-31T01:25:42.231Z,12.00
2018-08-31T01:26:41.950Z,12.30
2018-08-31T01:27:42.664Z,14.10
2018-08-31T01:28:42.054Z,13.10
2018-08-31T01:29:42.547Z,10.90
2018-08-31T01:30:42.011Z,12.40
2018-08-31T01:31:42.505Z,12.40
2018-08-31T01:32:41.884Z,16.90
2018-08-31T01:33:42.237Z,18.60
2018-08-31T01:35:04.942Z,19.50
2018-08-31T01:36:05.635Z,13.30
2018-08-31T01:37:05.167Z,18.60
2018-08-31T01:38:05.479Z,15.60
2018-08-31T01:39:04.948Z,10.80
2018-08-31T01:40:05.349Z,17.80
2018-08-31T01:41:05.743Z,10.70
2018-08-31T01:42:05.095Z,19.50
2018-08-31T01:43:05.514Z,12.80
2018-08-31T01:44:05.157Z,13.10
2018-08-31T01:45:05.813Z,11.90
2018-08-31T01:46:05.578Z,12.40
2018-08-31T01:47:04.903Z,11.10
2018-08-31T01:48:05.278Z,13.00
2018-08-31T01:49:05.881Z,12.70
2018-08-31T01:50:05.478Z,11.60
2018-08-31T01:51:06.021Z,15.70
2018-08-31T01:52:05.721Z,12.80
2018-08-31T01:53:05.196Z,8.90
2018-08-31T01:54:05.878Z,12.10
2018-08-31T01:55:05.305Z,13.30
2018-08-31T01:56:04.952Z,15.70
2018-08-31T01:57:05.297Z,14.20
2018-08-31T01:58:04.748Z,9.70
2018-08-31T01:59:05.217Z,12.50
2018-08-31T02:00:05.713Z,13.60
2018-08-31T02:01:05.404Z,13.40
2018-08-31T02:02:05.081Z,11.80
2018-08-31T02:03:05.679Z,14.30
2018-08-31T02:04:26.375Z,12.10
2018-08-31T02:05:27.005Z,10.30
2018-08-31T02:06:26.521Z,17.00
2018-08-31T02:07:48.225Z,13.60
2018-08-31T02:09:31.421Z,9.60
2018-08-31T02:10:31.918Z,13.30
2018-08-31T02:11:56.835Z,11.80
2018-08-31T02:12:56.513Z,12.40
2018-08-31T02:14:17.214Z,8.70
2018-08-31T02:15:17.546Z,7.50
2018-08-31T02:16:18.012Z,10.90
2018-08-31T02:17:17.278Z,8.60
2018-08-31T02:18:17.608Z,9.90
2018-08-31T02:19:18.150Z,9.70
2018-08-31T02:20:17.723Z,14.20
2018-08-31T02:21:18.063Z,14.00
2018-08-31T02:22:17.526Z,12.80
2018-08-31T02:23:17.523Z,15.30
2018-08-31T02:24:17.866Z,13.30
2018-08-31T02:25:17.566Z,17.60
2018-08-31T02:26:17.941Z,21.20
2018-08-31T02:27:17.416Z,17.50
2018-08-31T02:28:17.694Z,14.80
2018-08-31T02:29:18.136Z,10.00
2018-08-31T02:30:17.526Z,15.30
2018-08-31T02:31:17.927Z,16.50
2018-08-31T02:32:17.216Z,26.60
2018-08-31T02:33:17.710Z,19.10
2018-08-31T02:34:18.258Z,14.30
2018-08-31T02:35:17.788Z,13.70
2018-08-31T02:36:38.669Z,14.50
2018-08-31T02:37:38.958Z,37.90
2018-08-31T02:38:39.287Z,183.40
2018-08-31T02:39:38.882Z,113.60
2018-08-31T02:40:39.412Z,79.40
2018-08-31T02:41:38.903Z,47.40
2018-08-31T02:42:39.253Z,49.50
2018-08-31T02:43:38.692Z,25.50
2018-08-31T02:44:39.163Z,19.40
2018-08-31T02:45:39.595Z,20.50
2018-08-31T02:46:39.084Z,17.60
2018-08-31T02:47:39.608Z,18.50
2018-08-31T02:48:39.200Z,40.00
2018-08-31T02:49:39.910Z,11.00
2018-08-31T02:50:39.755Z,46.70
2018-08-31T02:51:39.250Z,83.60
2018-08-31T02:52:38.720Z,19.00
2018-08-31T02:53:39.271Z,17.00
2018-08-31T02:54:39.348Z,17.90
2018-08-31T02:55:38.876Z,17.90
2018-08-31T02:56:39.295Z,11.60
2018-08-31T02:57:39.054Z,12.50
2018-08-31T02:58:38.723Z,13.30
2018-08-31T02:59:39.270Z,16.20
2018-08-31T03:00:38.525Z,17.20
2018-08-31T03:01:38.913Z,20.70
2018-08-31T03:02:39.406Z,18.10
2018-08-31T03:03:39.311Z,16.20
2018-08-31T03:04:38.924Z,17.40
2018-08-31T03:05:39.658Z,15.90
2018-08-31T03:06:39.201Z,19.50
2018-08-31T03:07:38.587Z,19.90
2018-08-31T03:08:38.838Z,21.20
2018-08-31T03:09:39.603Z,15.90
2018-08-31T03:10:39.456Z,14.90
2018-08-31T03:11:38.926Z,13.50
2018-08-31T03:12:39.394Z,22.30
2018-08-31T03:13:38.720Z,13.60
2018-08-31T03:14:39.265Z,15.30
2018-08-31T03:16:41.884Z,14.60
2018-08-31T03:17:42.531Z,20.90
2018-08-31T03:19:03.406Z,17.00
2018-08-31T03:20:04.021Z,15.20
2018-08-31T03:21:03.628Z,22.50
2018-08-31T03:22:04.259Z,15.60
2018-08-31T03:23:03.831Z,24.40
2018-08-31T03:24:04.125Z,15.30
2018-08-31T03:25:27.128Z,16.50
2018-08-31T03:26:27.571Z,15.80
2018-08-31T03:27:28.042Z,10.60
2018-08-31T03:28:27.435Z,22.90
2018-08-31T03:29:27.896Z,16.60
2018-08-31T03:30:48.845Z,10.60
2018-08-31T03:31:49.543Z,15.10
2018-08-31T03:32:49.384Z,11.90
2018-08-31T03:33:48.786Z,17.70
2018-08-31T03:34:49.258Z,13.30
2018-08-31T03:35:49.763Z,11.50
2018-08-31T03:36:49.440Z,15.20
2018-08-31T03:37:49.285Z,10.10
2018-08-31T03:38:49.661Z,12.90
2018-08-31T03:39:49.133Z,11.90
2018-08-31T03:40:49.675Z,10.70
2018-08-31T03:41:49.259Z,11.80
2018-08-31T03:43:31.097Z,12.60
2018-08-31T03:44:52.695Z,16.10
2018-08-31T03:45:52.968Z,15.90
2018-08-31T03:46:53.504Z,12.50
2018-08-31T03:47:53.075Z,18.40
2018-08-31T03:49:14.625Z,17.40
2018-08-31T03:50:15.256Z,14.50
2018-08-31T03:51:27.776Z,19.40
2018-08-31T03:52:15.117Z,19.10
2018-08-31T03:53:15.453Z,17.90
2018-08-31T03:54:36.016Z,14.40
2018-08-31T03:55:57.526Z,18.30
2018-08-31T03:56:58.013Z,16.30
2018-08-31T03:57:58.427Z,18.00
2018-08-31T03:59:19.225Z,21.50
2018-08-31T04:00:19.630Z,21.70
2018-08-31T04:01:19.216Z,21.40
2018-08-31T04:02:20.200Z,22.20
2018-08-31T04:03:19.583Z,15.10
2018-08-31T04:04:20.166Z,15.90
2018-08-31T04:05:19.881Z,19.50
2018-08-31T04:06:19.281Z,19.20
2018-08-31T04:07:19.793Z,15.80
2018-08-31T04:08:40.451Z,16.20
2018-08-31T04:09:41.230Z,16.10
2018-08-31T04:10:40.872Z,18.50
2018-08-31T04:11:40.601Z,15.50
2018-08-31T04:12:41.350Z,18.00
2018-08-31T04:13:41.251Z,17.50
2018-08-31T04:14:40.603Z,17.80
2018-08-31T04:15:41.067Z,15.00
2018-08-31T04:17:01.699Z,14.30
2018-08-31T04:18:02.199Z,18.00
2018-08-31T04:19:02.766Z,16.90
2018-08-31T04:20:02.081Z,14.20
2018-08-31T04:21:02.847Z,14.60
2018-08-31T04:22:23.597Z,14.50
2018-08-31T04:23:24.342Z,18.30
2018-08-31T04:24:23.893Z,17.00
2018-08-31T04:25:45.417Z,16.90
2018-08-31T04:26:45.802Z,15.70
2018-08-31T04:27:46.308Z,16.20
2018-08-31T04:28:45.769Z,14.70
2018-08-31T04:29:46.247Z,13.40
2018-08-31T04:30:45.943Z,16.40
2018-08-31T04:31:45.512Z,16.50
2018-08-31T04:32:46.311Z,20.40
2018-08-31T04:34:07.342Z,14.50
2018-08-31T04:35:08.369Z,16.60
2018-08-31T04:36:29.698Z,13.90
2018-08-31T04:37:30.269Z,16.50
2018-08-31T04:38:32.995Z,16.80
2018-08-31T04:39:42.603Z,14.60
2018-08-31T04:40:30.101Z,18.40
2018-08-31T04:41:30.358Z,11.60
2018-08-31T04:42:30.131Z,20.50
2018-08-31T04:43:29.969Z,15.20
2018-08-31T04:44:30.629Z,18.70
2018-08-31T04:45:30.204Z,17.20
2018-08-31T04:46:30.148Z,14.90
2018-08-31T04:47:30.097Z,15.70
2018-08-31T04:48:29.713Z,13.10
2018-08-31T04:49:30.232Z,14.90
2018-08-31T04:50:29.717Z,16.00
2018-08-31T04:51:30.260Z,13.50
2018-08-31T04:52:29.790Z,17.70
2018-08-31T04:53:30.220Z,13.60
2018-08-31T04:54:29.771Z,11.80
2018-08-31T04:55:30.305Z,14.30
2018-08-31T04:56:29.784Z,13.60
2018-08-31T04:57:30.351Z,17.40
2018-08-31T04:58:30.063Z,11.60
2018-08-31T04:59:30.052Z,14.80
2018-08-31T05:00:30.603Z,9.70
2018-08-31T05:01:30.272Z,13.20
2018-08-31T05:02:29.696Z,9.40
2018-08-31T05:03:51.895Z,12.80
2018-08-31T05:04:52.458Z,11.00
2018-08-31T05:05:52.149Z,12.00
2018-08-31T05:06:52.787Z,8.50
2018-08-31T05:07:52.721Z,7.30
2018-08-31T05:08:52.427Z,11.80
2018-08-31T05:09:52.017Z,9.30
2018-08-31T05:10:52.511Z,12.00
2018-08-31T05:11:52.135Z,10.70
2018-08-31T05:12:53.284Z,12.20
2018-08-31T05:13:51.877Z,10.60
2018-08-31T05:14:52.495Z,10.40
2018-08-31T05:16:13.673Z,7.80
2018-08-31T05:17:14.696Z,6.40
2018-08-31T05:18:14.558Z,6.50
2018-08-31T05:19:35.485Z,5.50
2018-08-31T05:20:36.323Z,9.80
2018-08-31T05:21:57.400Z,10.40
2018-08-31T05:22:58.489Z,14.80
2018-08-31T05:24:19.689Z,21.30
2018-08-31T05:25:40.878Z,13.10
2018-08-31T05:27:03.224Z,16.70
2018-08-31T05:28:04.155Z,22.80
2018-08-31T05:29:02.980Z,17.70
2018-08-31T05:30:03.633Z,16.50
2018-08-31T05:31:03.147Z,15.70
2018-08-31T05:32:04.090Z,12.70
2018-08-31T05:33:03.683Z,16.50
2018-08-31T05:34:03.702Z,16.60
2018-08-31T05:35:03.525Z,15.70
2018-08-31T05:36:03.184Z,13.20
2018-08-31T05:37:25.746Z,14.90
2018-08-31T05:38:25.470Z,16.90
2018-08-31T05:39:26.418Z,11.90
2018-08-31T05:40:47.267Z,12.70
2018-08-31T05:42:00.213Z,21.40
2018-08-31T05:42:48.832Z,16.50
2018-08-31T05:43:49.282Z,16.80
2018-08-31T05:44:47.728Z,13.00
2018-08-31T05:45:48.205Z,10.10
2018-08-31T05:46:47.739Z,12.50
2018-08-31T05:47:47.762Z,14.20
2018-08-31T05:48:48.690Z,10.40
2018-08-31T05:49:48.626Z,11.00
2018-08-31T05:50:48.139Z,10.40
2018-08-31T05:52:09.218Z,10.40
2018-08-31T05:53:53.098Z,19.70
2018-08-31T05:55:00.052Z,15.00
2018-08-31T05:55:52.835Z,14.20
2018-08-31T05:56:53.385Z,13.50
2018-08-31T05:57:53.094Z,16.00
2018-08-31T05:59:14.616Z,11.70
2018-08-31T06:00:15.637Z,12.90
2018-08-31T06:01:15.555Z,15.90
2018-08-31T06:02:15.659Z,13.10
2018-08-31T06:03:15.159Z,15.60
2018-08-31T06:04:14.846Z,16.30
2018-08-31T06:05:15.436Z,17.10
2018-08-31T06:06:15.649Z,14.50
2018-08-31T06:07:15.447Z,18.90
2018-08-31T06:08:15.203Z,15.60
2018-08-31T06:09:15.129Z,16.00
2018-08-31T06:10:14.662Z,16.50
2018-08-31T06:11:15.325Z,15.90
2018-08-31T06:12:15.002Z,17.00
2018-08-31T06:13:16.413Z,14.30
2018-08-31T06:14:15.024Z,14.40
2018-08-31T06:15:14.740Z,15.50
2018-08-31T06:16:15.535Z,15.00
2018-08-31T06:17:38.629Z,16.20
2018-08-31T06:18:39.312Z,15.30
2018-08-31T06:19:38.941Z,14.80
2018-08-31T06:20:38.923Z,12.40
2018-08-31T06:21:39.184Z,13.80
2018-08-31T06:22:38.756Z,10.80
2018-08-31T06:23:39.258Z,11.30
2018-08-31T06:24:39.197Z,15.00
2018-08-31T06:25:38.958Z,13.80
2018-08-31T06:26:42.203Z,15.40
2018-08-31T06:28:00.369Z,14.90
2018-08-31T06:29:01.443Z,18.50
2018-08-31T06:30:01.612Z,18.20
2018-08-31T06:31:01.395Z,17.90
2018-08-31T06:32:01.070Z,11.90
2018-08-31T06:33:00.811Z,15.10
2018-08-31T06:34:00.644Z,16.10
2018-08-31T06:35:10.586Z,12.30
2018-08-31T06:36:01.442Z,17.80
2018-08-31T06:37:01.147Z,11.50
2018-08-31T06:38:00.917Z,11.00
2018-08-31T06:39:00.627Z,14.40
2018-08-31T06:40:00.556Z,19.50
2018-08-31T06:41:01.460Z,12.70
2018-08-31T06:42:01.629Z,8.60
2018-08-31T06:43:01.458Z,16.30
2018-08-31T06:44:01.046Z,15.10
2018-08-31T06:45:01.006Z,13.30
2018-08-31T06:46:22.366Z,7.40
2018-08-31T06:47:22.969Z,12.10
2018-08-31T06:48:22.752Z,13.60
2018-08-31T06:49:22.510Z,18.00
2018-08-31T06:50:23.563Z,13.10
2018-08-31T06:51:24.169Z,8.70
2018-08-31T06:52:22.921Z,11.20
2018-08-31T06:53:22.692Z,10.90
2018-08-31T06:54:22.485Z,9.70
2018-08-31T06:55:44.793Z,15.90
2018-08-31T06:56:45.354Z,14.60
2018-08-31T06:58:06.557Z,10.70
2018-08-31T06:59:07.570Z,17.30
2018-08-31T07:00:07.321Z,8.20
2018-08-31T07:01:07.389Z,10.80
2018-08-31T07:02:51.643Z,13.60
2018-08-31T07:03:53.894Z,13.80
2018-08-31T07:04:56.000Z,8.20
2018-08-31T07:05:57.635Z,14.60
2018-08-31T07:06:51.615Z,17.00
2018-08-31T07:07:52.431Z,13.20
2018-08-31T07:08:52.294Z,10.90
2018-08-31T07:09:58.548Z,14.20
2018-08-31T07:11:59.023Z,13.70
2018-08-31T07:12:59.962Z,7.90
2018-08-31T07:13:59.748Z,9.80
2018-08-31T07:15:21.054Z,12.50
2018-08-31T07:16:22.130Z,16.50
2018-08-31T07:17:21.689Z,7.10
2018-08-31T07:18:21.559Z,11.80
2018-08-31T07:19:21.655Z,8.50
2018-08-31T07:20:21.358Z,11.00
2018-08-31T07:22:06.052Z,8.50
2018-08-31T07:23:06.913Z,14.50
2018-08-31T07:24:06.688Z,9.20
2018-08-31T07:25:06.307Z,10.00
2018-08-31T07:26:06.266Z,9.60
2018-08-31T07:27:05.881Z,7.70
2018-08-31T07:28:06.638Z,8.50
2018-08-31T07:29:06.373Z,7.00
2018-08-31T07:30:06.686Z,8.20
2018-08-31T07:31:06.429Z,9.50
2018-08-31T07:32:06.262Z,10.70
2018-08-31T07:33:06.344Z,11.60
2018-08-31T07:34:07.228Z,9.10
2018-08-31T07:35:08.907Z,8.80
2018-08-31T07:36:07.409Z,10.80
2018-08-31T07:37:52.332Z,9.80
2018-08-31T07:38:52.826Z,7.70
2018-08-31T07:39:53.355Z,6.60
2018-08-31T07:40:52.060Z,8.20
2018-08-31T07:41:51.609Z,7.10
2018-08-31T07:42:51.444Z,11.10
2018-08-31T07:44:14.041Z,5.00
2018-08-31T07:45:57.254Z,5.90
2018-08-31T07:46:58.196Z,5.60
2018-08-31T07:47:57.853Z,8.90
2018-08-31T07:48:57.659Z,9.30
2018-08-31T07:49:57.360Z,8.40
2018-08-31T07:50:57.283Z,10.90
2018-08-31T07:51:58.263Z,5.90
2018-08-31T07:52:57.041Z,12.50
2018-08-31T07:53:57.900Z,8.20
2018-08-31T07:54:57.940Z,7.00
2018-08-31T07:55:58.022Z,7.60
2018-08-31T07:56:58.112Z,6.50
2018-08-31T07:57:57.670Z,6.00
2018-08-31T07:58:57.537Z,8.10
2018-08-31T07:59:57.211Z,10.00
2018-08-31T08:00:56.996Z,8.40
2018-08-31T08:01:57.853Z,8.50
2018-08-31T08:02:57.352Z,7.80
2018-08-31T08:03:57.003Z,9.50
2018-08-31T08:04:57.973Z,7.70
2018-08-31T08:05:57.981Z,8.00
2018-08-31T08:06:58.041Z,6.90
2018-08-31T08:07:57.789Z,7.80
2018-08-31T08:08:57.454Z,9.10
2018-08-31T08:09:57.301Z,8.70
2018-08-31T08:10:57.363Z,8.10
2018-08-31T08:11:57.444Z,10.20
2018-08-31T08:13:42.187Z,6.30
2018-08-31T08:14:43.085Z,46.20
2018-08-31T08:16:05.085Z,21.50
2018-08-31T08:17:04.948Z,15.40
2018-08-31T08:18:04.693Z,6.40
2018-08-31T08:19:05.975Z,103.90
2018-08-31T08:20:05.687Z,123.30
2018-08-31T08:21:05.708Z,50.00
2018-08-31T08:22:05.928Z,11.20
2018-08-31T08:23:48.784Z,8.30
2018-08-31T08:24:49.634Z,12.20
2018-08-31T08:25:49.413Z,9.00
2018-08-31T08:26:49.190Z,13.80
2018-08-31T08:27:49.191Z,7.00
2018-08-31T08:28:48.872Z,7.10
2018-08-31T08:29:48.623Z,8.20
2018-08-31T08:30:49.330Z,6.20
2018-08-31T08:31:49.088Z,4.50
2018-08-31T08:33:32.053Z,8.40
2018-08-31T08:34:54.777Z,6.50
2018-08-31T08:35:55.637Z,10.00
2018-08-31T08:36:55.930Z,11.90
2018-08-31T08:37:55.757Z,10.20
2018-08-31T08:38:55.762Z,11.00
2018-08-31T08:39:55.791Z,13.80
2018-08-31T08:40:55.917Z,8.70
2018-08-31T08:42:17.184Z,8.30
2018-08-31T08:43:17.042Z,14.50
2018-08-31T08:44:18.092Z,10.40
2018-08-31T08:45:17.694Z,10.10
2018-08-31T08:46:17.576Z,10.20
2018-08-31T08:47:17.400Z,7.20
2018-08-31T08:48:17.151Z,6.20
2018-08-31T08:49:17.390Z,6.00
2018-08-31T08:50:17.172Z,9.20
2018-08-31T08:51:17.748Z,8.00
2018-08-31T08:52:39.148Z,8.60
2018-08-31T08:53:40.209Z,10.00
2018-08-31T08:54:39.772Z,7.50
2018-08-31T08:55:39.555Z,8.00
2018-08-31T08:56:39.593Z,10.50
2018-08-31T08:57:39.261Z,8.00
2018-08-31T08:58:39.029Z,6.10
2018-08-31T08:59:39.759Z,7.70
2018-08-31T09:00:39.689Z,6.70
2018-08-31T09:01:39.386Z,10.00
2018-08-31T09:02:39.515Z,10.30
2018-08-31T09:04:00.840Z,8.60
2018-08-31T09:05:01.631Z,8.60
2018-08-31T09:06:01.504Z,8.60
2018-08-31T09:07:01.146Z,9.80
2018-08-31T09:08:01.765Z,10.50
2018-08-31T09:09:01.533Z,11.20
2018-08-31T09:10:01.658Z,9.70
2018-08-31T09:11:01.284Z,6.70
2018-08-31T09:12:01.979Z,9.00
2018-08-31T09:13:01.916Z,14.10
2018-08-31T09:14:01.725Z,19.40
2018-08-31T09:15:01.834Z,9.40
2018-08-31T09:16:01.483Z,7.80
2018-08-31T09:17:01.212Z,8.40
2018-08-31T09:18:02.016Z,7.90
2018-08-31T09:19:01.911Z,10.20
2018-08-31T09:20:01.669Z,14.10
2018-08-31T09:21:01.813Z,10.90
2018-08-31T09:22:01.395Z,6.90
2018-08-31T09:23:01.177Z,9.80
2018-08-31T09:24:01.127Z,6.70
2018-08-31T09:25:01.035Z,11.40
2018-08-31T09:26:01.840Z,8.10
2018-08-31T09:27:01.536Z,8.90
2018-08-31T09:28:01.341Z,8.70
2018-08-31T09:29:00.984Z,8.30
2018-08-31T09:30:23.125Z,9.20
2018-08-31T09:31:24.233Z,12.70
2018-08-31T09:32:24.184Z,6.30
2018-08-31T09:33:23.988Z,10.60
2018-08-31T09:34:46.729Z,9.50
2018-08-31T09:35:45.539Z,9.70
2018-08-31T09:36:45.457Z,7.50
2018-08-31T09:37:46.488Z,11.60
2018-08-31T09:38:45.696Z,10.00
2018-08-31T09:40:07.130Z,6.00
2018-08-31T09:41:07.908Z,6.40
2018-08-31T09:42:29.036Z,7.00
2018-08-31T09:43:51.373Z,9.40
2018-08-31T09:44:51.415Z,9.10
2018-08-31T09:45:51.343Z,7.70
2018-08-31T09:46:52.098Z,4.70
2018-08-31T09:47:51.997Z,13.80
2018-08-31T09:48:51.840Z,7.70
2018-08-31T09:49:51.614Z,6.00
2018-08-31T09:50:51.291Z,9.60
2018-08-31T09:52:13.696Z,8.30
2018-08-31T09:53:14.426Z,7.40
2018-08-31T09:54:14.428Z,11.30
2018-08-31T09:55:14.211Z,6.80
2018-08-31T09:56:14.267Z,9.80
2018-08-31T09:57:14.172Z,12.30
2018-08-31T09:58:14.206Z,14.30
2018-08-31T09:59:14.111Z,9.00
2018-08-31T10:00:14.301Z,11.20
2018-08-31T10:01:14.388Z,11.70
2018-08-31T10:02:36.158Z,8.80
2018-08-31T10:03:37.269Z,10.40
2018-08-31T10:04:37.353Z,8.80
2018-08-31T10:05:36.442Z,5.50
2018-08-31T10:06:36.340Z,6.30
2018-08-31T10:07:37.387Z,8.20
2018-08-31T10:08:36.362Z,16.30
2018-08-31T10:09:36.260Z,8.40
2018-08-31T10:10:59.899Z,10.10
2018-08-31T10:12:01.045Z,12.20
2018-08-31T10:12:59.789Z,9.00
2018-08-31T10:14:00.771Z,12.70
2018-08-31T10:15:22.754Z,7.10
2018-08-31T10:16:22.914Z,7.00
2018-08-31T10:17:22.832Z,8.30
2018-08-31T10:18:23.201Z,9.50
2018-08-31T10:19:23.289Z,9.40
2018-08-31T10:20:23.266Z,7.10
2018-08-31T10:21:23.532Z,13.20
2018-08-31T10:22:45.028Z,7.20
2018-08-31T10:23:45.861Z,6.80
2018-08-31T10:24:46.655Z,7.60
2018-08-31T10:25:45.824Z,7.60
2018-08-31T10:26:45.648Z,9.20
2018-08-31T10:28:09.016Z,6.60
2018-08-31T10:29:09.746Z,7.00
2018-08-31T10:30:09.568Z,9.30
2018-08-31T10:31:31.153Z,9.10
2018-08-31T10:32:53.900Z,8.20
2018-08-31T10:33:53.715Z,10.90
2018-08-31T10:34:54.867Z,5.60
2018-08-31T10:35:53.665Z,5.80
2018-08-31T10:36:54.515Z,6.80
2018-08-31T10:37:55.042Z,10.00
2018-08-31T10:38:53.872Z,8.20
2018-08-31T10:39:53.748Z,6.80
2018-08-31T10:40:53.711Z,4.20
2018-08-31T10:41:53.589Z,6.70
2018-08-31T10:42:54.586Z,5.90
2018-08-31T10:43:54.547Z,4.70
2018-08-31T10:44:54.231Z,7.20
2018-08-31T10:46:16.038Z,8.50
2018-08-31T10:47:16.125Z,11.20
2018-08-31T10:48:16.663Z,5.60
2018-08-31T10:49:16.533Z,5.80
2018-08-31T10:50:16.748Z,5.60
2018-08-31T10:51:16.573Z,5.00
2018-08-31T10:52:16.593Z,8.00
2018-08-31T10:53:16.703Z,7.80
2018-08-31T10:54:16.428Z,7.10
2018-08-31T10:55:16.266Z,9.90
2018-08-31T10:56:16.417Z,7.20
2018-08-31T10:57:16.114Z,6.30
2018-08-31T10:58:16.806Z,3.70
2018-08-31T10:59:38.247Z,8.50
2018-08-31T11:00:39.185Z,23.30
2018-08-31T11:01:39.151Z,7.60
2018-08-31T11:02:39.002Z,7.20
2018-08-31T11:03:38.790Z,4.20
2018-08-31T11:04:39.063Z,6.90
2018-08-31T11:05:38.574Z,5.60
2018-08-31T11:06:38.869Z,10.70
2018-08-31T11:07:38.771Z,9.00
2018-08-31T11:08:39.047Z,6.50
2018-08-31T11:09:38.837Z,6.70
2018-08-31T11:10:38.692Z,6.80
2018-08-31T11:11:38.468Z,3.20
2018-08-31T11:12:38.419Z,7.80
2018-08-31T11:13:39.312Z,6.50
2018-08-31T11:14:39.256Z,5.80
2018-08-31T11:15:39.113Z,6.10
2018-08-31T11:16:39.194Z,6.40
2018-08-31T11:17:39.082Z,7.90
2018-08-31T11:18:39.707Z,7.60
2018-08-31T11:19:39.417Z,11.60
2018-08-31T11:20:38.390Z,10.00
2018-08-31T11:21:39.057Z,4.30
2018-08-31T11:22:38.824Z,6.80
2018-08-31T11:23:38.755Z,5.80
2018-08-31T11:25:00.511Z,8.10
2018-08-31T11:26:22.932Z,4.70
2018-08-31T11:27:22.982Z,4.60
2018-08-31T11:28:23.037Z,7.20
2018-08-31T11:29:22.935Z,6.00
2018-08-31T11:30:22.619Z,9.20
2018-08-31T11:31:22.795Z,6.40
2018-08-31T11:32:46.622Z,5.40
2018-08-31T11:33:46.576Z,11.40
2018-08-31T11:35:08.217Z,10.10
2018-08-31T11:36:09.084Z,7.30
2018-08-31T11:37:08.936Z,4.00
2018-08-31T11:38:08.647Z,6.80
2018-08-31T11:39:08.446Z,7.10
2018-08-31T11:40:08.944Z,4.80
2018-08-31T11:41:08.745Z,3.90
2018-08-31T11:42:08.899Z,5.50
2018-08-31T11:43:31.591Z,4.90
2018-08-31T11:44:32.485Z,4.20
2018-08-31T11:45:31.309Z,7.00
2018-08-31T11:46:55.236Z,4.80
2018-08-31T11:47:55.378Z,8.10
2018-08-31T11:48:55.890Z,8.60
2018-08-31T11:49:55.300Z,7.80
2018-08-31T11:50:55.022Z,3.90
2018-08-31T11:51:54.979Z,6.70
2018-08-31T11:52:54.556Z,5.80
2018-08-31T11:53:55.309Z,4.80
2018-08-31T11:54:55.134Z,4.50
2018-08-31T11:55:55.100Z,5.30
2018-08-31T11:56:55.734Z,7.80
2018-08-31T11:57:55.517Z,7.20
2018-08-31T11:58:55.447Z,7.60
2018-08-31T11:59:55.552Z,12.30
2018-08-31T12:00:56.299Z,7.10
2018-08-31T12:01:55.305Z,8.60
2018-08-31T12:02:55.293Z,9.80
2018-08-31T12:03:55.345Z,4.70
2018-08-31T12:04:55.141Z,6.10
2018-08-31T12:05:55.168Z,8.40
2018-08-31T12:06:54.811Z,6.00
2018-08-31T12:07:54.754Z,7.30
2018-08-31T12:09:17.028Z,4.50
2018-08-31T12:10:17.069Z,9.50
2018-08-31T12:11:18.230Z,7.00
2018-08-31T12:12:17.394Z,5.50
2018-08-31T12:13:17.635Z,4.50
2018-08-31T12:14:17.715Z,8.40
2018-08-31T12:15:17.598Z,6.90
2018-08-31T12:16:17.448Z,6.90
2018-08-31T12:17:17.356Z,8.80
2018-08-31T12:18:17.533Z,5.30
2018-08-31T12:19:17.571Z,5.80
2018-08-31T12:20:17.665Z,8.20
2018-08-31T12:21:17.314Z,3.00
2018-08-31T12:22:17.219Z,3.80
2018-08-31T12:23:17.127Z,6.80
2018-08-31T12:24:17.580Z,4.50
2018-08-31T12:25:17.663Z,11.70
2018-08-31T12:26:17.616Z,8.80
2018-08-31T12:27:18.947Z,5.90
2018-08-31T12:28:39.381Z,7.70
2018-08-31T12:29:40.911Z,3.30
2018-08-31T12:30:39.747Z,7.00
2018-08-31T12:31:39.745Z,4.10
2018-08-31T12:32:39.425Z,7.40
2018-08-31T12:33:40.227Z,5.70
2018-08-31T12:34:40.960Z,3.50
2018-08-31T12:35:39.901Z,3.50
2018-08-31T12:36:40.398Z,7.30
2018-08-31T12:37:40.901Z,5.40
2018-08-31T12:38:39.609Z,5.80
2018-08-31T12:39:41.133Z,4.50
2018-08-31T12:40:39.911Z,4.00
2018-08-31T12:41:39.884Z,6.00
2018-08-31T12:42:39.448Z,7.70
2018-08-31T12:44:02.503Z,11.20
2018-08-31T12:45:02.932Z,12.10
2018-08-31T12:46:01.903Z,10.00
2018-08-31T12:47:02.851Z,7.20
2018-08-31T12:48:01.821Z,6.70
2018-08-31T12:49:02.984Z,5.60
2018-08-31T12:50:03.041Z,10.40
2018-08-31T12:51:03.075Z,6.10
2018-08-31T12:52:24.790Z,6.20
2018-08-31T12:53:25.882Z,11.70
2018-08-31T12:54:24.728Z,13.50
2018-08-31T12:55:24.951Z,8.30
2018-08-31T12:56:25.684Z,4.80
2018-08-31T12:57:25.172Z,4.10
2018-08-31T12:58:24.037Z,3.00
2018-08-31T12:59:25.407Z,4.30
2018-08-31T13:00:48.589Z,5.40
2018-08-31T13:01:47.594Z,3.50
2018-08-31T13:02:48.876Z,4.70
2018-08-31T13:03:47.759Z,3.50
2018-08-31T13:04:47.553Z,5.70
2018-08-31T13:05:47.421Z,2.50
2018-08-31T13:06:47.561Z,4.40
2018-08-31T13:07:47.807Z,3.70
2018-08-31T13:08:48.102Z,5.50
2018-08-31T13:09:47.217Z,4.70
2018-08-31T13:10:47.714Z,6.70
2018-08-31T13:11:48.112Z,3.80
2018-08-31T13:12:47.203Z,5.40
2018-08-31T13:13:47.332Z,4.80
2018-08-31T13:15:10.060Z,3.90
2018-08-31T13:16:08.870Z,4.40
2018-08-31T13:17:53.645Z,4.40
2018-08-31T13:18:54.155Z,4.10
2018-08-31T13:19:54.482Z,3.40
2018-08-31T13:20:52.561Z,3.70
2018-08-31T13:21:52.740Z,3.60
2018-08-31T13:22:52.747Z,5.30
2018-08-31T13:23:53.128Z,5.80
2018-08-31T13:24:53.161Z,3.30
2018-08-31T13:25:53.175Z,4.40
2018-08-31T13:26:53.323Z,3.30
2018-08-31T13:27:53.250Z,6.10
2018-08-31T13:28:53.225Z,5.20
2018-08-31T13:29:53.414Z,6.00
2018-08-31T13:30:52.459Z,6.00
2018-08-31T13:31:52.569Z,6.20
2018-08-31T13:32:52.652Z,5.50
2018-08-31T13:33:52.848Z,3.80
2018-08-31T13:34:52.781Z,6.40
2018-08-31T13:35:52.607Z,8.10
2018-08-31T13:36:52.850Z,16.00
2018-08-31T13:37:52.582Z,7.80
2018-08-31T13:39:36.164Z,32.10
2018-08-31T13:40:36.139Z,6.40
2018-08-31T13:41:36.885Z,3.80
2018-08-31T13:42:37.565Z,6.30
2018-08-31T13:43:36.645Z,5.90
2018-08-31T13:44:36.792Z,4.10
2018-08-31T13:45:36.715Z,4.20